X  Close Metar Aviation Weather Data     EHRD Rotterdam The Hague Airport
Temperature
9°C Temperature
4°C Dewpoint
71% Humidity



Wind
32 KM/H
20 MPH
9 M/S
17 KTS



320°
NW
Current Conditions

Mostly Cloudy Mostly Cloudy
Pressure 1011.85 (hPa) - 29.88 (inHg)
Visibility 6 (mile) - 9.7 (km)
Airport
Airport-code EHRD

Location: Rotterdam The Hague Airport
Distance: 27 (km)

Metar:
EHRD 191525Z AUTO 32017G29KT 280V020 9999 BKN024/// BKN030/// 09/04 Q1012 TEMPO 7000 SHRA FEW020CB

Time: 19-04-2024 15:25 CEST